Time;durP1;ratioP1;P1;durP2;ratioP2;P2;SDS_P1;SDS_P2;PMS_P1;PMS_P2;Temp;Humidity;BMP_temperature;BMP_pressure;BME280_temperature;BME280_humidity;BME280_pressure;Samples;Min_cycle;Max_cycle;Signal;HPM_P1;HPM_P2
2022/04/05 00:02:25;;;;;;;13.90;12.47;;;;;;;11.40;66.10;99381.97;5113688;28;20192;-68
2022/04/05 00:04:52;;;;;;;15.47;12.00;;;;;;;11.50;65.74;99387.69;5113395;28;20288;-67
2022/04/05 00:07:19;;;;;;;17.03;12.47;;;;;;;11.59;65.30;99386.44;5113105;28;20636;-68
2022/04/05 00:09:45;;;;;;;13.80;12.50;;;;;;;11.64;64.86;99377.91;5113428;28;20191;-67
2022/04/05 00:12:13;;;;;;;14.80;13.37;;;;;;;11.72;64.51;99383.00;5114044;28;20252;-68
2022/04/05 00:14:40;;;;;;;14.93;13.43;;;;;;;11.73;64.60;99385.47;5113784;28;20562;-68
2022/04/05 00:17:07;;;;;;;17.13;13.73;;;;;;;11.75;64.39;99380.75;5113201;28;20249;-68
2022/04/05 00:19:34;;;;;;;15.43;13.00;;;;;;;11.81;63.63;99373.78;5113109;28;20192;-68
2022/04/05 00:22:00;;;;;;;16.03;13.87;;;;;;;11.89;63.92;99382.38;5112924;28;20193;-68
2022/04/05 00:24:27;;;;;;;20.10;14.43;;;;;;;11.92;63.60;99381.94;5112958;28;20293;-68
2022/04/05 00:26:55;;;;;;;17.73;13.40;;;;;;;11.99;63.95;99380.09;5112985;28;20189;-68
2022/04/05 00:29:23;;;;;;;23.53;13.87;;;;;;;11.98;63.42;99386.47;5113276;28;20201;-68
2022/04/05 00:31:51;;;;;;;21.67;13.70;;;;;;;11.99;62.72;99388.09;5112951;28;20283;-68
2022/04/05 00:34:18;;;;;;;19.07;13.97;;;;;;;11.90;62.52;99391.16;5112917;28;20258;-68
2022/04/05 00:36:45;;;;;;;16.33;12.80;;;;;;;11.83;62.15;99382.38;5112879;28;20196;-68
2022/04/05 00:39:11;;;;;;;16.53;12.50;;;;;;;11.75;62.49;99375.44;5112732;28;20633;-68
2022/04/05 00:41:38;;;;;;;15.87;13.87;;;;;;;11.67;62.62;99372.19;5112791;28;20194;-68
2022/04/05 00:44:05;;;;;;;14.40;12.83;;;;;;;11.63;63.12;99361.09;5112459;28;20722;-68
2022/04/05 00:46:33;;;;;;;15.20;12.80;;;;;;;11.68;63.04;99363.97;5113027;28;20197;-68
2022/04/05 00:49:02;;;;;;;16.60;13.47;;;;;;;11.73;63.23;99358.88;5113055;28;20189;-68
2022/04/05 00:51:29;;;;;;;14.00;12.63;;;;;;;11.76;63.03;99355.75;5112378;28;20665;-68
2022/04/05 00:54:00;;;;;;;15.03;12.77;;;;;;;11.82;63.57;99344.31;5113213;28;20545;-68
2022/04/05 00:56:28;;;;;;;13.83;12.40;;;;;;;11.86;63.02;99350.84;5112422;28;20245;-68
2022/04/05 00:58:55;;;;;;;13.60;12.20;;;;;;;11.91;62.78;99347.56;5112227;28;20193;-68
2022/04/05 01:01:24;;;;;;;13.23;11.93;;;;;;;11.93;62.85;99343.69;5112839;28;20197;-68
2022/04/05 01:03:53;;;;;;;12.93;11.37;;;;;;;11.97;62.94;99342.22;5113397;28;20197;-68
2022/04/05 01:06:28;;;;;;;13.30;11.90;;;;;;;12.00;62.39;99341.81;5112809;28;20226;-68
2022/04/05 01:08:56;;;;;;;14.57;11.73;;;;;;;12.07;62.23;99352.44;5113163;28;20189;-68
2022/04/05 01:11:23;;;;;;;13.00;11.80;;;;;;;12.03;61.98;99336.06;5112203;28;20244;-68
2022/04/05 01:13:50;;;;;;;12.97;11.40;;;;;;;12.00;61.77;99339.16;5116591;28;20190;-68
2022/04/05 01:16:18;;;;;;;13.37;11.93;;;;;;;12.01;62.04;99338.09;5116918;27;20198;-67
2022/04/05 01:18:45;;;;;;;12.20;10.87;;;;;;;12.01;61.70;99337.31;5116301;28;20197;-68
2022/04/05 01:21:14;;;;;;;13.50;12.00;;;;;;;12.06;61.41;99335.66;5116776;28;20190;-68
2022/04/05 01:24:03;;;;;;;12.33;11.23;;;;;;;12.13;60.83;99332.97;5116906;28;20283;-68
2022/04/05 01:26:29;;;;;;;13.53;11.50;;;;;;;12.14;60.38;99327.44;5116183;28;20271;-67
2022/04/05 01:28:56;;;;;;;11.77;10.60;;;;;;;12.19;60.62;99319.63;5116087;28;20654;-67
2022/04/05 01:31:23;;;;;;;12.07;10.90;;;;;;;12.21;60.74;99322.09;5116365;28;20186;-68
2022/04/05 01:33:50;;;;;;;22.60;11.20;;;;;;;12.17;60.02;99316.34;5116556;28;20194;-68
2022/04/05 01:36:21;;;;;;;12.73;11.20;;;;;;;12.16;60.67;99314.72;5115996;28;20198;-68
2022/04/05 01:38:49;;;;;;;11.83;10.73;;;;;;;12.20;60.62;99315.13;5117117;28;20263;-68
2022/04/05 01:41:16;;;;;;;14.30;11.30;;;;;;;12.22;60.35;99311.25;5116215;28;20236;-68
2022/04/05 01:43:43;;;;;;;11.43;10.33;;;;;;;12.23;59.91;99315.53;5116642;28;20243;-68
2022/04/05 01:46:09;;;;;;;12.20;10.87;;;;;;;12.23;60.09;99315.53;5115723;28;20774;-68
2022/04/05 01:48:36;;;;;;;11.43;10.37;;;;;;;12.26;59.88;99308.97;5116605;28;20256;-68
2022/04/05 01:51:03;;;;;;;12.20;10.87;;;;;;;12.27;59.87;99306.09;5116008;28;20193;-68
2022/04/05 01:53:29;;;;;;;21.17;10.57;;;;;;;12.28;60.00;99301.56;5115632;28;20197;-68
2022/04/05 01:55:57;;;;;;;13.00;10.17;;;;;;;12.24;59.64;99297.69;5115491;28;20577;-68
2022/04/05 01:58:24;;;;;;;11.43;10.30;;;;;;;12.19;59.53;99306.31;5115818;28;20193;-68
2022/04/05 02:00:52;;;;;;;11.50;9.47;;;;;;;12.16;59.11;99304.06;5115559;28;20784;-68
2022/04/05 02:03:19;;;;;;;12.23;9.53;;;;;;;11.99;59.36;99276.28;5115421;28;20194;-68
2022/04/05 02:05:48;;;;;;;11.37;10.07;;;;;;;12.08;59.99;99298.19;5115667;28;20221;-68
2022/04/05 02:08:15;;;;;;;10.93;9.83;;;;;;;12.08;59.98;99300.84;5115689;28;20191;-68
2022/04/05 02:10:41;;;;;;;16.07;10.40;;;;;;;12.11;59.59;99311.06;5115590;28;20248;-68
2022/04/05 02:13:10;;;;;;;34.40;11.83;;;;;;;12.06;59.93;99303.72;5116055;28;20236;-68
2022/04/05 02:15:36;;;;;;;19.90;11.03;;;;;;;12.02;60.10;99310.50;5115415;28;20201;-68
2022/04/05 02:18:03;;;;;;;16.00;10.67;;;;;;;11.97;60.59;99310.28;5115177;28;20248;-68
2022/04/05 02:20:30;;;;;;;14.73;10.10;;;;;;;11.97;60.74;99294.31;5115456;28;20253;-68
2022/04/05 02:22:57;;;;;;;13.67;10.10;;;;;;;12.02;60.87;99296.34;5115193;28;20227;-69
2022/04/05 02:25:24;;;;;;;14.23;10.07;;;;;;;11.98;60.60;99305.78;5114953;28;20658;-68
2022/04/05 02:27:50;;;;;;;13.27;10.33;;;;;;;12.01;60.55;99311.50;5115211;28;20193;-68
2022/04/05 02:30:19;;;;;;;12.03;9.97;;;;;;;12.01;59.99;99306.16;5115369;27;20554;-68
2022/04/05 02:32:45;;;;;;;11.60;9.00;;;;;;;12.00;60.17;99298.41;5114895;28;20658;-67
2022/04/05 02:35:13;;;;;;;10.60;9.27;;;;;;;12.07;60.00;99299.19;5114841;28;20680;-67
2022/04/05 02:37:39;;;;;;;12.60;9.70;;;;;;;12.13;59.54;99299.16;5115914;28;20197;-67
2022/04/05 02:40:07;;;;;;;13.23;9.90;;;;;;;12.18;60.03;99295.88;5115126;28;20194;-67
2022/04/05 02:42:34;;;;;;;11.77;9.37;;;;;;;12.15;60.53;99301.63;5115330;28;20232;-68
2022/04/05 02:45:01;;;;;;;11.07;9.20;;;;;;;12.16;60.06;99290.75;5115482;28;20285;-68
2022/04/05 02:47:29;;;;;;;14.20;8.80;;;;;;;12.19;59.91;99297.50;5114629;28;20198;-67
2022/04/05 02:49:56;;;;;;;10.20;8.37;;;;;;;12.20;59.90;99294.63;5114853;28;20243;-69
2022/04/05 02:52:22;;;;;;;23.10;10.20;;;;;;;12.18;59.67;99291.38;5114768;28;20270;-67
2022/04/05 02:54:49;;;;;;;14.73;8.80;;;;;;;12.22;59.34;99297.09;5114439;28;20592;-67
2022/04/05 02:57:18;;;;;;;15.47;9.10;;;;;;;12.20;59.33;99301.81;5115017;28;20191;-67
2022/04/05 02:59:45;;;;;;;10.83;9.40;;;;;;;12.26;59.24;99293.81;5113936;28;20628;-67
2022/04/05 03:02:11;;;;;;;21.93;10.43;;;;;;;12.28;59.58;99288.25;5114648;28;20244;-67
2022/04/05 03:04:40;;;;;;;14.50;9.20;;;;;;;12.28;59.32;99286.41;5114228;28;20211;-68
2022/04/05 03:07:06;;;;;;;12.50;9.27;;;;;;;12.22;59.08;99295.25;5114618;28;20221;-67
2022/04/05 03:09:33;;;;;;;14.67;9.13;;;;;;;12.11;59.46;99298.56;5114994;28;20194;-67
2022/04/05 03:12:00;;;;;;;11.03;9.10;;;;;;;12.04;59.47;99294.31;5114110;28;20247;-67
2022/04/05 03:14:27;;;;;;;11.53;8.20;;;;;;;12.02;59.01;99297.19;5113998;28;20726;-68
2022/04/05 03:16:53;;;;;;;11.83;8.57;;;;;;;11.98;59.12;99290.63;5114015;28;20228;-68
2022/04/05 03:19:20;;;;;;;12.97;8.80;;;;;;;12.05;59.64;99286.09;5113959;28;20254;-67
2022/04/05 03:21:48;;;;;;;13.87;9.27;;;;;;;12.09;61.09;99287.31;5113879;28;20733;-68
2022/04/05 03:24:15;;;;;;;11.87;8.27;;;;;;;12.13;60.68;99288.50;5114971;28;20230;-67
2022/04/05 03:26:42;;;;;;;12.57;8.00;;;;;;;12.16;59.59;99285.44;5114084;28;20324;-67
2022/04/05 03:29:08;;;;;;;14.50;7.60;;;;;;;12.15;58.65;99289.13;5114037;28;20197;-68
2022/04/05 03:31:35;;;;;;;9.30;7.33;;;;;;;12.18;59.23;99286.06;5114519;28;20193;-67
2022/04/05 03:34:02;;;;;;;13.20;7.53;;;;;;;12.17;58.89;99279.06;5113716;28;20671;-68
2022/04/05 03:36:29;;;;;;;7.13;6.43;;;;;;;12.19;58.22;99290.34;5113094;28;20224;-68
2022/04/05 03:38:57;;;;;;;8.83;7.07;;;;;;;12.13;58.23;99282.41;5114312;28;20263;-67
2022/04/05 03:41:24;;;;;;;7.47;6.73;;;;;;;12.09;57.32;99281.19;5113737;28;20195;-67
2022/04/05 03:43:50;;;;;;;8.73;7.13;;;;;;;12.16;57.72;99293.44;5114164;28;20193;-67
2022/04/05 03:46:17;;;;;;;7.27;6.63;;;;;;;12.17;58.22;99295.06;5113620;28;20289;-67
2022/04/05 03:48:44;;;;;;;6.83;6.20;;;;;;;12.15;57.70;99289.13;5113306;28;20189;-67
2022/04/05 03:51:10;;;;;;;6.93;6.37;;;;;;;12.12;57.22;99291.41;5113313;28;20193;-67
2022/04/05 03:53:37;;;;;;;9.43;6.40;;;;;;;12.10;57.52;99294.28;5113277;28;20658;-68
2022/04/05 03:56:06;;;;;;;14.40;7.53;;;;;;;12.11;57.36;99295.06;5114108;28;20255;-68
2022/04/05 03:58:32;;;;;;;9.57;6.73;;;;;;;12.10;57.32;99288.97;5113465;28;20201;-68
2022/04/05 04:00:59;;;;;;;7.03;6.17;;;;;;;12.01;57.94;99295.50;5113117;28;20238;-68
2022/04/05 04:03:26;;;;;;;6.80;6.30;;;;;;;11.95;58.85;99301.69;5113090;28;20573;-68
2022/04/05 04:05:52;;;;;;;15.00;7.27;;;;;;;11.91;58.26;99305.81;5113234;28;20227;-67
2022/04/05 04:08:19;;;;;;;10.03;6.73;;;;;;;11.86;58.13;99296.81;5113551;28;20198;-67
2022/04/05 04:10:48;;;;;;;6.93;6.27;;;;;;;11.82;59.02;99296.41;5112946;28;20658;-67
2022/04/05 04:13:16;;;;;;;7.23;6.63;;;;;;;11.81;59.31;99300.09;5113431;28;20620;-67
2022/04/05 04:15:43;;;;;;;7.17;6.47;;;;;;;11.76;59.59;99297.22;5112752;28;20193;-68
2022/04/05 04:18:10;;;;;;;9.47;6.60;;;;;;;11.74;59.70;99295.81;5113052;28;20188;-67
2022/04/05 04:20:38;;;;;;;8.87;6.20;;;;;;;11.76;59.58;99297.22;5113781;28;20193;-67
2022/04/05 04:23:05;;;;;;;13.90;9.00;;;;;;;11.78;59.69;99294.38;5113191;28;20693;-68
2022/04/05 04:25:31;;;;;;;11.97;7.53;;;;;;;11.79;58.85;99296.00;5112874;28;20249;-68
2022/04/05 04:27:58;;;;;;;13.97;7.80;;;;;;;11.79;59.28;99301.31;5113000;28;20188;-68
2022/04/05 04:30:26;;;;;;;9.63;6.20;;;;;;;11.83;59.48;99297.22;5112936;28;20188;-67
2022/04/05 04:32:54;;;;;;;7.33;6.63;;;;;;;11.85;59.84;99290.69;5112925;28;20188;-68
2022/04/05 04:35:21;;;;;;;10.17;6.57;;;;;;;11.92;59.44;99294.13;5113396;28;20192;-67
2022/04/05 04:37:48;;;;;;;9.73;6.43;;;;;;;11.91;59.26;99297.81;5113215;28;20554;-67
2022/04/05 04:40:14;;;;;;;9.87;6.93;;;;;;;11.94;58.78;99299.22;5112712;28;20246;-68
2022/04/05 04:42:42;;;;;;;10.50;7.07;;;;;;;11.99;58.54;99302.91;5112714;28;20571;-68
2022/04/05 04:45:10;;;;;;;16.37;7.73;;;;;;;12.02;58.18;99302.50;5111198;28;20250;-68
2022/04/05 04:47:38;;;;;;;14.27;9.77;;;;;;;12.08;58.70;99303.50;5111240;28;20219;-69
2022/04/05 04:50:07;;;;;;;25.90;11.57;;;;;;;12.09;59.49;99303.28;5112348;27;20724;-68
2022/04/05 04:52:33;;;;;;;26.60;13.17;;;;;;;12.16;60.31;99298.75;5112626;28;20273;-68
2022/04/05 04:55:00;;;;;;;22.40;13.57;;;;;;;12.23;60.48;99304.06;5113515;28;20301;-69
2022/04/05 04:57:27;;;;;;;18.67;13.37;;;;;;;12.30;60.66;99305.69;5112626;28;20250;-70
2022/04/05 04:59:54;;;;;;;20.03;13.20;;;;;;;12.32;60.05;99302.78;5112619;28;20193;-69
2022/04/05 05:02:22;;;;;;;20.07;12.70;;;;;;;12.30;59.91;99300.34;5113440;28;20269;-70
2022/04/05 05:04:50;;;;;;;14.60;12.60;;;;;;;12.29;60.07;99301.34;5112496;28;20201;-69
2022/04/05 05:07:17;;;;;;;16.27;14.50;;;;;;;12.38;59.92;99300.09;5112090;28;20216;-67
2022/04/05 05:09:44;;;;;;;18.97;12.13;;;;;;;12.47;58.64;99298.00;5111943;28;20246;-70
2022/04/05 05:12:12;;;;;;;16.40;12.80;;;;;;;12.56;58.61;99304.72;5112104;28;20691;-73
2022/04/05 05:14:39;;;;;;;20.87;14.57;;;;;;;12.63;57.97;99303.66;5112384;28;20243;-69
2022/04/05 05:17:06;;;;;;;23.60;12.27;;;;;;;12.69;57.98;99308.13;5112678;28;20195;-69
2022/04/05 05:19:33;;;;;;;20.53;13.33;;;;;;;12.74;57.74;99308.28;5113146;28;20198;-69
2022/04/05 05:22:01;;;;;;;22.90;13.97;;;;;;;12.76;57.81;99308.91;5111994;28;20194;-67
2022/04/05 05:24:28;;;;;;;22.97;13.60;;;;;;;12.86;63.74;99309.25;5112157;28;20587;-64
2022/04/05 05:26:54;;;;;;;18.43;10.33;;;;;;;13.04;60.36;99312.03;5112777;28;20222;-67
2022/04/05 05:29:21;;;;;;;18.97;14.23;;;;;;;13.28;62.90;99311.22;5111940;28;20201;-68
2022/04/05 05:31:48;;;;;;;24.03;16.53;;;;;;;13.46;59.41;99316.63;5108571;28;20203;-67
2022/04/05 05:34:20;;;;;;;22.57;17.00;;;;;;;13.50;58.80;99299.16;5110788;28;20623;-67
2022/04/05 05:36:47;;;;;;;21.20;15.90;;;;;;;13.75;58.67;99313.28;5109761;28;20656;-69
2022/04/05 05:39:15;;;;;;;20.73;14.97;;;;;;;13.73;57.32;99314.53;5109661;28;20271;-68
2022/04/05 05:41:42;;;;;;;21.37;16.00;;;;;;;13.79;57.41;99309.13;5109933;28;20316;-67
2022/04/05 05:44:09;;;;;;;25.90;15.17;;;;;;;13.85;58.42;99313.56;5110225;28;20253;-67
2022/04/05 05:46:35;;;;;;;17.23;14.70;;;;;;;13.96;56.72;99320.84;5113081;28;20660;-68
2022/04/05 05:49:02;;;;;;;29.73;15.57;;;;;;;13.98;56.08;99313.44;5125931;28;20240;-68
2022/04/05 05:51:29;;;;;;;27.07;14.40;;;;;;;14.06;55.73;99325.69;5110110;28;20240;-67
2022/04/05 05:53:55;;;;;;;26.87;14.50;;;;;;;14.06;56.14;99315.81;5111102;28;20248;-67
2022/04/05 05:56:23;;;;;;;19.70;15.00;;;;;;;14.01;55.76;99318.31;5111909;28;20740;-67
2022/04/05 05:58:51;;;;;;;26.70;15.97;;;;;;;14.02;56.87;99313.81;5113726;28;20252;-67
2022/04/05 06:01:18;;;;;;;23.50;15.10;;;;;;;13.82;55.50;99319.38;5116052;28;20197;-68
2022/04/05 06:03:45;;;;;;;32.17;15.13;;;;;;;13.84;56.88;99321.81;5113891;28;20194;-67
2022/04/05 06:06:12;;;;;;;19.40;14.67;;;;;;;13.91;55.97;99323.38;5115066;28;20207;-68
2022/04/05 06:08:39;;;;;;;24.20;13.40;;;;;;;13.63;55.70;99325.72;5115081;28;20194;-68
2022/04/05 06:11:07;;;;;;;17.80;15.50;;;;;;;13.64;56.19;99322.00;5115064;28;20200;-68
2022/04/05 06:13:35;;;;;;;20.50;16.67;;;;;;;13.33;56.55;99319.41;5115500;28;20271;-68
2022/04/05 06:16:02;;;;;;;20.40;15.17;;;;;;;13.12;57.93;99318.94;5115244;28;20655;-68
2022/04/05 06:18:29;;;;;;;18.47;14.20;;;;;;;13.10;57.77;99324.50;5115340;28;20667;-67
2022/04/05 06:20:56;;;;;;;27.27;15.70;;;;;;;13.04;58.28;99303.22;5115595;28;20186;-68
2022/04/05 06:23:22;;;;;;;27.63;13.97;;;;;;;13.32;57.61;99328.44;5115021;28;20226;-68
2022/04/05 06:25:49;;;;;;;20.70;12.23;;;;;;;13.49;61.96;99316.19;5115216;28;20255;-69
2022/04/05 06:28:18;;;;;;;17.10;12.77;;;;;;;13.70;57.70;99331.81;5114754;28;20799;-68
2022/04/05 06:30:47;;;;;;;28.03;13.17;;;;;;;13.76;56.45;99328.25;5115925;27;20191;-70
2022/04/05 06:33:17;;;;;;;15.37;12.90;;;;;;;13.67;56.30;99313.56;5114624;28;20251;-68
2022/04/05 06:35:46;;;;;;;16.10;13.50;;;;;;;13.59;57.02;99329.84;5114865;28;20682;-67
2022/04/05 06:38:14;;;;;;;14.80;13.27;;;;;;;13.45;57.31;99328.34;5115227;28;20658;-68
2022/04/05 06:40:43;;;;;;;24.30;17.87;;;;;;;13.40;58.31;99325.50;5114604;28;20619;-69
2022/04/05 06:43:10;;;;;;;23.87;16.97;;;;;;;13.45;58.22;99328.34;5114557;28;20194;-68
2022/04/05 06:45:37;;;;;;;17.43;12.93;;;;;;;13.56;57.74;99335.63;5114904;28;20252;-69
2022/04/05 06:48:06;;;;;;;17.47;12.67;;;;;;;13.54;56.96;99332.38;5129725;27;20373;-71
2022/04/05 06:50:33;;;;;;;24.70;13.33;;;;;;;13.63;56.71;99347.06;5135375;27;20193;-69
2022/04/05 06:53:01;;;;;;;16.77;12.87;;;;;;;13.66;56.90;99346.63;5134883;27;20190;-69
2022/04/05 06:55:28;;;;;;;14.97;12.87;;;;;;;13.78;56.50;99342.19;5135863;27;20251;-69
2022/04/05 06:57:55;;;;;;;18.83;13.33;;;;;;;13.91;55.97;99338.56;5135288;27;20201;-69
2022/04/05 07:00:23;;;;;;;16.80;13.57;;;;;;;13.99;54.99;99336.44;5134814;27;20206;-69
2022/04/05 07:02:51;;;;;;;22.20;13.30;;;;;;;14.09;54.51;99342.06;5134734;27;20231;-69
2022/04/05 07:05:19;;;;;;;16.13;14.43;;;;;;;13.98;54.73;99339.31;5134798;27;20193;-70
2022/04/05 07:07:47;;;;;;;18.70;13.60;;;;;;;14.07;55.12;99332.66;5134883;27;20278;-69
2022/04/05 07:10:16;;;;;;;16.43;12.33;;;;;;;14.04;53.75;99317.88;5133708;27;20250;-70
2022/04/05 07:12:43;;;;;;;17.27;15.07;;;;;;;14.16;53.95;99337.47;5117229;27;20194;-68
2022/04/05 07:15:10;;;;;;;21.07;14.93;;;;;;;14.31;53.47;99343.31;5113865;28;20216;-70
2022/04/05 07:17:38;;;;;;;23.87;14.63;;;;;;;14.47;52.34;99347.22;5115313;28;20199;-69
2022/04/05 07:20:08;;;;;;;19.40;15.13;;;;;;;14.44;52.40;99343.16;5114071;28;20191;-69
2022/04/05 07:22:37;;;;;;;23.90;15.00;;;;;;;14.42;53.03;99339.88;5114080;28;20235;-70
2022/04/05 07:25:04;;;;;;;16.17;14.63;;;;;;;14.49;53.16;99342.47;5114001;28;20186;-70
2022/04/05 07:27:31;;;;;;;17.60;15.70;;;;;;;14.54;51.77;99338.06;5113306;28;20218;-70
2022/04/05 07:29:57;;;;;;;22.53;16.00;;;;;;;14.85;52.28;99348.56;5113294;28;20624;-71
2022/04/05 07:32:24;;;;;;;25.40;17.00;;;;;;;15.31;51.57;99343.34;5113566;28;20944;-70
2022/04/05 07:34:51;;;;;;;15.37;13.87;;;;;;;15.83;48.92;99347.88;5113828;28;20247;-71
2022/04/05 07:37:17;;;;;;;18.60;14.60;;;;;;;16.30;47.33;99348.63;5114722;28;20194;-71
2022/04/05 07:39:45;;;;;;;15.17;13.37;;;;;;;16.66;44.89;99342.97;5113061;28;20229;-71
2022/04/05 07:42:12;;;;;;;14.00;12.70;;;;;;;16.91;45.56;99342.66;5113365;28;20684;-71
2022/04/05 07:44:39;;;;;;;13.73;12.47;;;;;;;17.19;44.06;99356.03;5113414;28;20673;-70
2022/04/05 07:47:06;;;;;;;16.90;12.47;;;;;;;17.17;43.41;99347.41;5113461;28;20221;-74
2022/04/05 07:49:33;;;;;;;16.80;12.70;;;;;;;17.17;44.05;99340.19;5113286;28;20725;-70
2022/04/05 07:52:01;;;;;;;13.70;12.30;;;;;;;16.91;42.80;99345.31;5113653;28;20190;-79
2022/04/05 07:54:28;;;;;;;15.10;11.93;;;;;;;17.18;41.68;99344.47;5113310;28;20740;-85
2022/04/05 07:56:57;;;;;;;12.50;11.30;;;;;;;17.28;42.15;99327.75;5113541;28;20256;-84
2022/04/05 07:59:24;;;;;;;15.73;11.53;;;;;;;17.59;41.46;99338.75;5113561;27;20201;-90
2022/04/05 08:01:51;;;;;;;23.93;11.97;;;;;;;17.79;40.97;99340.94;5113579;28;20252;-81
2022/04/05 08:04:18;;;;;;;24.70;15.03;;;;;;;17.74;40.60;99338.19;5112687;28;20740;-85
2022/04/05 08:06:44;;;;;;;14.70;12.63;;;;;;;17.76;40.97;99333.38;5113525;28;20230;-78
2022/04/05 08:09:11;;;;;;;12.53;11.30;;;;;;;17.92;40.99;99332.56;5112831;28;20216;-81
2022/04/05 08:11:38;;;;;;;15.47;9.77;;;;;;;18.28;39.56;99321.19;5113168;28;20199;-84
2022/04/05 08:14:06;;;;;;;15.03;11.17;;;;;;;18.41;39.17;99315.47;5113075;28;20197;-78
2022/04/05 08:16:32;;;;;;;10.40;9.50;;;;;;;18.53;38.21;99318.84;5113125;28;20267;-77
2022/04/05 08:18:59;;;;;;;13.53;9.33;;;;;;;18.64;38.39;99323.28;5112715;28;20195;-84
2022/04/05 08:21:27;;;;;;;15.23;9.87;;;;;;;18.69;37.77;99318.78;5112553;28;20194;-79
2022/04/05 08:23:55;;;;;;;13.37;9.87;;;;;;;18.88;37.57;99316.56;5113102;28;20236;-86
2022/04/05 08:26:22;;;;;;;15.57;10.40;;;;;;;18.79;38.08;99310.03;5112595;28;20611;-84
2022/04/05 08:28:49;;;;;;;14.17;9.43;;;;;;;19.04;37.71;99315.66;5112716;28;20273;-87
2022/04/05 08:31:18;;;;;;;13.47;8.63;;;;;;;19.06;37.12;99300.03;5112585;28;20196;-86
2022/04/05 08:33:45;;;;;;;9.57;8.63;;;;;;;19.13;36.64;99304.19;5113137;28;20277;-80
2022/04/05 08:36:12;;;;;;;20.00;9.77;;;;;;;19.23;36.88;99295.34;5112493;28;20732;-76
2022/04/05 08:38:40;;;;;;;10.33;9.30;;;;;;;19.50;36.61;99315.00;5113331;28;20193;-76
2022/04/05 08:41:08;;;;;;;11.97;9.07;;;;;;;19.76;35.52;99306.03;5112785;28;20218;-78
2022/04/05 08:43:36;;;;;;;9.80;8.77;;;;;;;19.85;35.43;99312.59;5112521;28;20665;-79
2022/04/05 08:46:06;;;;;;;14.33;8.70;;;;;;;19.98;35.35;99306.72;5112701;27;20201;-78
2022/04/05 08:48:35;;;;;;;10.67;8.17;;;;;;;20.34;39.72;99284.28;5112877;28;20312;-70
2022/04/05 08:51:02;;;;;;;30.80;19.97;;;;;;;20.94;54.37;99270.16;5112462;28;20326;-71
2022/04/05 08:53:32;;;;;;;22.50;8.93;;;;;;;21.41;38.81;99273.41;5110952;28;20717;-70
2022/04/05 08:55:59;;;;;;;34.37;15.83;;;;;;;21.63;44.35;99260.41;5112800;28;20187;-69
2022/04/05 08:58:26;;;;;;;22.93;13.07;;;;;;;22.28;42.45;99263.78;5112107;28;20717;-70
2022/04/05 09:00:53;;;;;;;19.37;10.23;;;;;;;22.91;38.38;99268.31;5111723;28;20240;-71
2022/04/05 09:03:19;;;;;;;18.57;9.83;;;;;;;22.87;38.20;99256.44;5112773;28;20278;-71
2022/04/05 09:05:48;;;;;;;13.07;8.77;;;;;;;22.87;34.72;99256.44;5112235;28;20262;-72
2022/04/05 09:08:21;;;;;;;13.70;8.57;;;;;;;22.66;29.76;99260.34;5112312;28;20282;-70
2022/04/05 09:10:50;;;;;;;9.60;8.33;;;;;;;22.50;31.47;99252.63;5112285;28;20187;-72
2022/04/05 09:13:23;;;;;;;9.07;8.03;;;;;;;22.19;30.20;99253.78;5111962;28;20579;-71
2022/04/05 09:15:52;;;;;;;9.93;8.23;;;;;;;22.16;30.96;99243.50;5111835;28;20277;-68
2022/04/05 09:18:44;;;;;;;9.77;8.07;;;;;;;22.08;30.20;99258.44;5112404;28;20202;-76
2022/04/05 09:21:14;;;;;;;10.17;9.13;;;;;;;22.16;30.82;99249.75;5097307;28;20190;-79
2022/04/05 09:23:43;;;;;;;10.47;9.30;;;;;;;21.92;29.88;99248.75;5112392;28;20230;-74
2022/04/05 09:26:12;;;;;;;9.80;9.10;;;;;;;21.72;29.98;99243.38;5111699;28;20228;-75
2022/04/05 09:28:41;;;;;;;11.90;9.53;;;;;;;21.47;30.77;99246.09;5112137;28;20211;-79
2022/04/05 09:31:09;;;;;;;15.57;8.73;;;;;;;20.94;31.72;99241.25;5112136;28;20222;-77
2022/04/05 09:33:38;;;;;;;10.00;9.00;;;;;;;20.72;32.81;99246.06;5114137;28;20255;-81
2022/04/05 09:36:13;;;;;;;9.50;8.77;;;;;;;20.84;32.06;99243.09;5116075;28;20221;-78
2022/04/05 09:38:41;;;;;;;10.17;8.13;;;;;;;20.83;31.89;99238.78;5116198;28;20246;-77
2022/04/05 09:41:14;;;;;;;12.13;9.00;;;;;;;20.98;31.45;99236.16;5115934;28;20198;-81
2022/04/05 09:43:51;;;;;;;9.57;8.67;;;;;;;21.29;30.47;99243.97;5116131;28;20732;-79
2022/04/05 09:46:19;;;;;;;13.37;7.77;;;;;;;21.43;30.94;99239.63;5115958;28;20212;-80
2022/04/05 09:48:46;;;;;;;13.53;9.27;;;;;;;21.26;31.04;99220.19;5115661;28;20240;-76
2022/04/05 09:51:16;;;;;;;20.53;8.23;;;;;;;21.38;36.14;99214.50;5116168;28;20667;-70
2022/04/05 09:53:46;;;;;;;13.37;8.30;;;;;;;21.68;31.95;99226.06;5115417;28;20574;-68
2022/04/05 09:56:15;;;;;;;11.53;7.17;;;;;;;22.00;30.33;99229.25;5115677;28;20305;-73
2022/04/05 09:58:50;;;;;;;8.83;7.13;;;;;;;21.95;30.67;99221.16;5115274;28;20640;-72
2022/04/05 10:01:19;;;;;;;14.30;8.90;;;;;;;21.70;30.40;99212.28;5102823;28;20186;-71
2022/04/05 10:03:58;;;;;;;9.60;8.67;;;;;;;21.65;31.68;99209.59;5119415;27;20201;-70
2022/04/05 10:06:28;;;;;;;16.77;9.43;;;;;;;21.74;30.55;99207.97;5136349;27;20238;-71
2022/04/05 10:08:56;;;;;;;11.50;7.53;;;;;;;21.97;34.38;99200.03;5136002;27;20218;-65
2022/04/05 10:11:25;;;;;;;13.50;6.73;;;;;;;22.51;37.40;99198.19;5130005;27;20269;-64
2022/04/05 10:13:52;;;;;;;8.83;8.00;;;;;;;23.06;29.67;99200.47;5115649;28;20191;-67
2022/04/05 10:16:20;;;;;;;7.83;7.13;;;;;;;23.03;32.94;99192.91;5114902;28;20263;-68
2022/04/05 10:18:48;;;;;;;10.03;8.23;;;;;;;23.09;28.97;99199.91;5115404;28;20591;-68
2022/04/05 10:21:16;;;;;;;9.90;7.90;;;;;;;23.26;29.96;99188.69;5113606;28;20196;-67
2022/04/05 10:23:47;;;;;;;9.43;7.33;;;;;;;23.37;28.41;99191.03;5113523;28;20234;-67
2022/04/05 10:26:16;;;;;;;9.63;6.67;;;;;;;23.29;31.10;99185.41;5125684;27;20198;-67
2022/04/05 10:28:45;;;;;;;8.13;6.90;;;;;;;23.65;31.43;99173.88;5121300;27;20215;-68
2022/04/05 10:31:15;;;;;;;10.73;8.30;;;;;;;23.92;31.73;99170.63;5114975;28;20196;-68
2022/04/05 10:33:55;;;;;;;7.33;6.63;;;;;;;24.08;31.48;99170.16;5115403;28;20185;-69
2022/04/05 10:36:24;;;;;;;6.67;6.13;;;;;;;24.21;26.45;99164.00;5114964;28;20253;-69
2022/04/05 10:39:15;;;;;;;10.13;7.43;;;;;;;24.09;27.10;99160.13;5115340;28;20196;-70
2022/04/05 10:41:42;;;;;;;7.70;7.00;;;;;;;23.97;28.13;99157.81;5114665;28;20208;-69
2022/04/05 10:44:27;;;;;;;8.50;7.00;;;;;;;23.81;28.21;99148.19;5114655;28;20196;-67
2022/04/05 10:46:57;;;;;;;7.70;7.20;;;;;;;23.67;28.42;99141.88;5114013;28;20195;-68
2022/04/05 10:49:42;;;;;;;8.13;7.30;;;;;;;23.74;28.66;99147.78;5114206;28;20604;-68
2022/04/05 10:52:12;;;;;;;5.37;4.93;;;;;;;23.60;28.57;99135.97;5114428;28;20199;-70
2022/04/05 10:54:43;;;;;;;6.77;6.17;;;;;;;23.23;29.21;99124.22;5114602;28;20188;-69
2022/04/05 10:57:28;;;;;;;7.80;6.53;;;;;;;23.24;29.14;99142.88;5114641;28;20188;-69
2022/04/05 10:59:57;;;;;;;12.03;6.80;;;;;;;23.30;29.38;99117.34;5113508;28;20192;-70
2022/04/05 11:02:38;;;;;;;7.87;7.07;;;;;;;22.99;27.82;99137.69;5113230;28;20227;-70
2022/04/05 11:05:36;;;;;;;7.60;5.73;;;;;;;22.60;30.22;99131.53;5114759;28;20185;-67
2022/04/05 11:08:12;;;;;;;7.03;6.53;;;;;;;22.27;29.24;99121.44;5114015;28;20210;-70
2022/04/05 11:10:51;;;;;;;7.63;7.07;;;;;;;21.88;29.32;99117.84;5114251;28;20179;-69
2022/04/05 11:13:22;;;;;;;8.30;5.97;;;;;;;21.87;31.32;99116.25;5094151;28;20191;-69
2022/04/05 11:15:50;;;;;;;7.30;5.73;;;;;;;22.03;31.71;99115.09;5093885;28;20187;-68
2022/04/05 11:18:19;;;;;;;5.40;5.10;;;;;;;22.25;30.03;99112.78;5093161;28;20429;-69
2022/04/05 11:20:48;;;;;;;5.23;4.93;;;;;;;21.88;30.73;99096.22;5093401;28;20213;-70
2022/04/05 11:23:17;;;;;;;8.50;6.07;;;;;;;22.24;30.08;99103.03;5093494;28;20685;-69
2022/04/05 11:25:46;;;;;;;8.40;4.90;;;;;;;22.28;31.01;99106.81;5110545;27;20258;-70
2022/04/05 11:28:15;;;;;;;5.03;4.73;;;;;;;22.48;31.50;99101.28;5124665;27;20214;-70